createdAt,value
2023-01-19T00:01:44.074Z,13.72
2023-01-19T00:04:12.360Z,13.70
2023-01-19T00:06:40.807Z,13.69
2023-01-19T00:09:09.126Z,13.68
2023-01-19T00:11:37.509Z,13.69
2023-01-19T00:14:06.203Z,13.70
2023-01-19T00:16:34.794Z,13.67
2023-01-19T00:19:03.073Z,13.65
2023-01-19T00:21:31.417Z,13.64
2023-01-19T00:23:59.698Z,13.64
2023-01-19T00:26:27.973Z,13.61
2023-01-19T00:28:56.224Z,13.60
2023-01-19T00:31:24.541Z,13.56
2023-01-19T00:33:53.489Z,13.54
2023-01-19T00:36:21.787Z,13.52
2023-01-19T00:38:50.083Z,13.50
2023-01-19T00:41:19.760Z,13.48
2023-01-19T00:43:48.058Z,13.48
2023-01-19T00:46:16.349Z,13.47
2023-01-19T00:48:45.809Z,13.44
2023-01-19T00:51:14.044Z,13.40
2023-01-19T00:53:42.300Z,13.38
2023-01-19T00:56:10.974Z,13.34
2023-01-19T00:58:39.273Z,13.31
2023-01-19T01:01:07.653Z,13.28
2023-01-19T01:03:36.005Z,13.29
2023-01-19T01:06:04.644Z,13.28
2023-01-19T01:08:33.244Z,13.27
2023-01-19T01:11:02.247Z,13.25
2023-01-19T01:13:30.909Z,13.21
2023-01-19T01:15:59.471Z,13.18
2023-01-19T01:18:27.815Z,13.15
2023-01-19T01:21:13.684Z,13.10
2023-01-19T01:23:41.969Z,13.06
2023-01-19T01:26:10.272Z,13.03
2023-01-19T01:28:38.586Z,12.99
2023-01-19T01:31:06.871Z,12.96
2023-01-19T01:33:40.703Z,12.93
2023-01-19T01:36:11.155Z,12.90
2023-01-19T01:38:41.468Z,12.87
2023-01-19T01:41:10.158Z,12.86
2023-01-19T01:43:47.712Z,12.84
2023-01-19T01:46:18.115Z,12.84
2023-01-19T01:48:52.716Z,12.83
2023-01-19T01:51:27.337Z,12.83
2023-01-19T01:54:22.929Z,12.84
2023-01-19T01:56:54.339Z,12.84
2023-01-19T01:59:41.574Z,12.81
2023-01-19T02:02:41.368Z,12.80
2023-01-19T02:05:14.305Z,12.79
2023-01-19T02:08:07.775Z,12.76
2023-01-19T02:10:55.022Z,12.75
2023-01-19T02:13:24.366Z,12.72
2023-01-19T02:15:55.726Z,12.72
2023-01-19T02:18:26.394Z,12.70
2023-01-19T02:21:22.326Z,12.67
2023-01-19T02:23:58.924Z,12.65
2023-01-19T02:26:36.399Z,12.64
2023-01-19T02:29:09.290Z,12.64
2023-01-19T02:31:39.957Z,12.61
2023-01-19T02:34:11.475Z,12.62
2023-01-19T02:37:04.369Z,12.60
2023-01-19T02:39:53.337Z,12.61
2023-01-19T02:42:28.438Z,12.61
2023-01-19T02:44:58.581Z,12.61
2023-01-19T02:47:27.023Z,12.60
2023-01-19T02:49:59.178Z,12.60
2023-01-19T02:52:28.805Z,12.62
2023-01-19T02:55:09.967Z,12.63
2023-01-19T02:57:41.509Z,12.63
2023-01-19T03:00:38.023Z,12.61
2023-01-19T03:03:38.639Z,12.57
2023-01-19T03:06:22.313Z,12.57
2023-01-19T03:09:15.731Z,12.59
2023-01-19T03:11:51.527Z,12.57
2023-01-19T03:14:26.287Z,12.57
2023-01-19T03:17:00.519Z,12.60
2023-01-19T03:19:34.293Z,12.61
2023-01-19T03:22:22.938Z,12.62
2023-01-19T03:24:54.691Z,12.56
2023-01-19T03:27:28.297Z,12.52
2023-01-19T03:30:03.025Z,12.51
2023-01-19T03:32:37.152Z,12.49
2023-01-19T03:35:12.640Z,12.48
2023-01-19T03:37:45.280Z,12.43
2023-01-19T03:40:13.799Z,12.43
2023-01-19T03:42:43.609Z,12.44
2023-01-19T03:45:14.308Z,12.45
2023-01-19T03:47:42.971Z,12.43
2023-01-19T03:50:22.949Z,12.41
2023-01-19T03:53:07.436Z,12.40
2023-01-19T03:55:37.992Z,12.40
2023-01-19T03:58:07.925Z,12.38
2023-01-19T04:00:37.430Z,12.41
2023-01-19T04:03:07.573Z,12.42
2023-01-19T04:05:35.863Z,12.41
2023-01-19T04:08:04.291Z,12.40
2023-01-19T04:10:32.857Z,12.36
2023-01-19T04:13:02.941Z,12.36
2023-01-19T04:15:32.171Z,12.33
2023-01-19T04:18:02.014Z,12.33
2023-01-19T04:20:30.918Z,12.33
2023-01-19T04:23:03.323Z,12.32
2023-01-19T04:25:31.779Z,12.33
2023-01-19T04:28:00.188Z,12.33
2023-01-19T04:30:29.191Z,12.35
2023-01-19T04:33:00.017Z,12.36
2023-01-19T04:35:28.520Z,12.36
2023-01-19T04:37:56.789Z,12.35
2023-01-19T04:40:25.416Z,12.35
2023-01-19T04:42:53.724Z,12.34
2023-01-19T04:45:22.009Z,12.35
2023-01-19T04:47:52.233Z,12.36
2023-01-19T04:50:20.661Z,12.32
2023-01-19T04:52:49.896Z,12.28
2023-01-19T04:55:19.312Z,12.26
2023-01-19T04:57:47.633Z,12.26
2023-01-19T05:00:16.656Z,12.26
2023-01-19T05:02:46.045Z,12.30
2023-01-19T05:05:14.925Z,12.30
2023-01-19T05:07:44.793Z,12.33
2023-01-19T05:10:13.538Z,12.34
2023-01-19T05:12:43.052Z,12.34
2023-01-19T05:15:12.193Z,12.32
2023-01-19T05:17:40.496Z,12.34
2023-01-19T05:20:11.232Z,12.34
2023-01-19T05:22:40.208Z,12.37
2023-01-19T05:25:12.614Z,12.39
2023-01-19T05:27:40.930Z,12.42
2023-01-19T05:30:10.053Z,12.44
2023-01-19T05:32:38.529Z,12.45
2023-01-19T05:35:07.449Z,12.48
2023-01-19T05:37:35.715Z,12.48
2023-01-19T05:40:04.339Z,12.48
2023-01-19T05:42:33.038Z,12.48
2023-01-19T05:45:01.612Z,12.47
2023-01-19T05:47:33.341Z,12.42
2023-01-19T05:50:01.632Z,12.39
2023-01-19T05:52:30.009Z,12.37
2023-01-19T05:54:58.496Z,12.35
2023-01-19T05:57:26.850Z,12.33
2023-01-19T05:59:55.180Z,12.30
2023-01-19T06:02:29.369Z,12.30
2023-01-19T06:04:57.991Z,12.32
2023-01-19T06:07:28.857Z,12.32
2023-01-19T06:09:57.715Z,12.31
2023-01-19T06:12:26.270Z,12.26
2023-01-19T06:14:54.683Z,12.23
2023-01-19T06:17:23.212Z,12.22
2023-01-19T06:19:51.519Z,12.21
2023-01-19T06:22:19.812Z,12.19
2023-01-19T06:24:48.099Z,12.18
2023-01-19T06:27:16.359Z,12.17
2023-01-19T06:29:44.645Z,12.17
2023-01-19T06:32:13.272Z,12.21
2023-01-19T06:34:44.563Z,12.24
2023-01-19T06:37:12.923Z,12.27
2023-01-19T06:39:42.003Z,12.29
2023-01-19T06:42:10.505Z,12.30
2023-01-19T06:44:38.788Z,12.31
2023-01-19T06:47:14.955Z,12.33
2023-01-19T06:49:44.672Z,12.35
2023-01-19T06:52:16.758Z,12.35
2023-01-19T06:54:46.978Z,12.35
2023-01-19T06:57:15.783Z,12.36
2023-01-19T06:59:44.096Z,12.39
2023-01-19T07:02:26.325Z,12.40
2023-01-19T07:04:57.246Z,12.39
2023-01-19T07:07:25.894Z,12.37
2023-01-19T07:09:54.681Z,12.35
2023-01-19T07:12:24.186Z,12.33
2023-01-19T07:14:53.560Z,12.29
2023-01-19T07:17:21.928Z,12.26
2023-01-19T07:19:50.218Z,12.18
2023-01-19T07:22:18.817Z,12.12
2023-01-19T07:24:47.118Z,12.07
2023-01-19T07:27:17.222Z,12.01
2023-01-19T07:29:45.596Z,11.98
2023-01-19T07:32:14.351Z,11.97
2023-01-19T07:34:42.651Z,11.92
2023-01-19T07:37:10.968Z,11.88
2023-01-19T07:39:39.305Z,11.83
2023-01-19T07:42:08.262Z,11.81
2023-01-19T07:44:36.749Z,11.86
2023-01-19T07:47:08.306Z,11.88
2023-01-19T07:49:37.298Z,11.91
2023-01-19T07:52:05.799Z,11.91
2023-01-19T07:54:34.458Z,11.88
2023-01-19T07:57:03.115Z,11.86
2023-01-19T07:59:33.138Z,11.86
2023-01-19T08:02:01.586Z,11.87
2023-01-19T08:04:30.321Z,11.83
2023-01-19T08:06:58.685Z,11.77
2023-01-19T08:09:27.087Z,11.70
2023-01-19T08:11:55.439Z,11.59
2023-01-19T08:14:23.755Z,11.37
2023-01-19T08:16:52.080Z,11.22
2023-01-19T08:19:20.439Z,10.99
2023-01-19T08:21:48.834Z,10.84
2023-01-19T08:24:23.593Z,10.71
2023-01-19T08:26:52.507Z,10.51
2023-01-19T08:29:20.850Z,10.30
2023-01-19T08:31:49.316Z,10.11
2023-01-19T08:34:17.756Z,9.98
2023-01-19T08:36:46.169Z,9.91
2023-01-19T08:39:15.551Z,9.88
2023-01-19T08:41:43.818Z,9.92
2023-01-19T08:44:12.259Z,9.99
2023-01-19T08:46:40.560Z,10.06
2023-01-19T08:49:09.632Z,10.12
2023-01-19T08:51:38.978Z,10.14
2023-01-19T08:54:07.508Z,10.06
2023-01-19T08:56:35.790Z,10.00
2023-01-19T08:59:09.952Z,9.97
2023-01-19T09:01:39.293Z,9.97
2023-01-19T09:04:07.802Z,9.94
2023-01-19T09:06:36.151Z,9.90
2023-01-19T09:09:04.774Z,9.92
2023-01-19T09:11:33.237Z,9.97
2023-01-19T09:14:01.601Z,9.98
2023-01-19T09:16:30.199Z,9.99
2023-01-19T09:18:59.376Z,10.06
2023-01-19T09:21:27.668Z,10.11
2023-01-19T09:23:56.106Z,10.13
2023-01-19T09:26:24.654Z,10.12
2023-01-19T09:28:52.955Z,10.13
2023-01-19T09:31:21.407Z,10.17
2023-01-19T09:33:49.856Z,10.21
2023-01-19T09:36:18.133Z,10.22
2023-01-19T09:38:46.930Z,10.23
2023-01-19T09:41:23.032Z,10.24
2023-01-19T09:43:59.158Z,10.27
2023-01-19T09:46:40.813Z,10.27
2023-01-19T09:49:22.815Z,10.29
2023-01-19T09:51:52.353Z,10.31
2023-01-19T09:54:37.388Z,10.30
2023-01-19T09:57:07.517Z,10.31
2023-01-19T09:59:37.503Z,10.31
2023-01-19T10:02:14.482Z,10.33
2023-01-19T10:04:45.058Z,10.34
2023-01-19T10:07:21.353Z,10.35
2023-01-19T10:10:07.348Z,10.32
2023-01-19T10:12:59.392Z,10.30
2023-01-19T10:15:48.397Z,10.29
2023-01-19T10:18:31.825Z,10.21
2023-01-19T10:21:17.645Z,10.15
2023-01-19T10:24:08.763Z,10.13
2023-01-19T10:26:53.461Z,10.14
2023-01-19T10:29:24.603Z,10.13
2023-01-19T10:31:57.765Z,10.13
2023-01-19T10:34:26.047Z,10.15
2023-01-19T10:37:03.863Z,10.17
2023-01-19T10:39:35.780Z,10.16
2023-01-19T10:42:07.520Z,10.15
2023-01-19T10:44:38.473Z,10.14
2023-01-19T10:47:15.893Z,10.16
2023-01-19T10:49:44.689Z,10.15
2023-01-19T10:52:45.586Z,10.12
2023-01-19T10:55:29.346Z,10.11
2023-01-19T10:57:59.104Z,10.10
2023-01-19T11:00:38.654Z,10.09
2023-01-19T11:03:28.715Z,10.06
2023-01-19T11:06:17.770Z,10.04
2023-01-19T11:08:47.757Z,10.03
2023-01-19T11:11:16.020Z,10.02
2023-01-19T11:13:45.019Z,10.01
2023-01-19T11:16:35.599Z,10.00
2023-01-19T11:19:04.453Z,9.98
2023-01-19T11:21:34.023Z,9.96
2023-01-19T11:24:06.314Z,9.95
2023-01-19T11:26:49.886Z,9.96
2023-01-19T11:29:28.224Z,9.96
2023-01-19T11:32:00.280Z,9.88
2023-01-19T11:34:38.828Z,9.83
2023-01-19T11:37:17.436Z,9.79
2023-01-19T11:39:51.142Z,9.74
2023-01-19T11:42:20.968Z,9.70
2023-01-19T11:45:13.609Z,9.64
2023-01-19T11:47:47.982Z,9.61
2023-01-19T11:50:34.346Z,9.55
2023-01-19T11:53:16.048Z,9.52
2023-01-19T11:55:53.518Z,9.46
2023-01-19T11:58:22.548Z,9.43
2023-01-19T12:01:03.658Z,9.42
2023-01-19T12:03:34.405Z,9.39
2023-01-19T12:06:15.194Z,9.35
2023-01-19T12:08:59.457Z,9.32
2023-01-19T12:11:40.956Z,9.28
2023-01-19T12:14:24.787Z,9.22
2023-01-19T12:16:56.349Z,9.21
2023-01-19T12:19:41.958Z,9.14
2023-01-19T12:22:17.704Z,9.06
2023-01-19T12:24:58.069Z,8.97
2023-01-19T12:27:47.149Z,8.92
2023-01-19T12:30:30.332Z,8.90
2023-01-19T12:33:37.959Z,8.84
2023-01-19T12:36:18.126Z,8.82
2023-01-19T12:38:58.438Z,8.81
2023-01-19T12:41:29.481Z,8.84
2023-01-19T12:44:13.177Z,8.82
2023-01-19T12:46:58.930Z,8.70
2023-01-19T12:49:43.923Z,8.63
2023-01-19T12:52:24.140Z,8.59
2023-01-19T12:55:00.684Z,8.56
2023-01-19T12:57:37.794Z,8.54
2023-01-19T13:00:23.395Z,8.51
2023-01-19T13:02:57.816Z,8.48
2023-01-19T13:05:33.274Z,8.44
2023-01-19T13:08:07.528Z,8.42
2023-01-19T13:11:07.231Z,8.37
2023-01-19T13:13:40.919Z,8.34
2023-01-19T13:16:25.832Z,8.31
2023-01-19T13:19:09.554Z,8.26
2023-01-19T13:21:46.016Z,8.25
2023-01-19T13:24:23.152Z,8.21
2023-01-19T13:26:51.365Z,8.17
2023-01-19T13:29:41.723Z,8.17
2023-01-19T13:32:20.225Z,8.18
2023-01-19T13:35:02.650Z,8.16
2023-01-19T13:37:42.573Z,8.14
2023-01-19T13:40:21.671Z,8.13
2023-01-19T13:42:52.139Z,8.10
2023-01-19T13:45:34.587Z,8.08
2023-01-19T13:48:07.741Z,8.04
2023-01-19T13:50:43.642Z,8.01
2023-01-19T13:53:25.236Z,7.99
2023-01-19T13:56:22.782Z,7.92
2023-01-19T13:59:14.983Z,7.90
2023-01-19T14:01:45.975Z,7.83
2023-01-19T14:04:34.625Z,7.81
2023-01-19T14:07:14.648Z,7.75
2023-01-19T14:09:42.954Z,7.74
2023-01-19T14:12:17.032Z,7.73
2023-01-19T14:14:48.503Z,7.70
2023-01-19T14:17:28.050Z,7.69
2023-01-19T14:19:58.719Z,7.66
2023-01-19T14:22:44.728Z,7.68
2023-01-19T14:25:33.077Z,7.71
2023-01-19T14:28:29.453Z,7.75
2023-01-19T14:31:04.395Z,7.72
2023-01-19T14:33:38.113Z,7.69
2023-01-19T14:36:17.591Z,7.74
2023-01-19T14:38:48.889Z,7.78
2023-01-19T14:41:25.758Z,7.77
2023-01-19T14:43:56.927Z,7.76
2023-01-19T14:46:25.934Z,7.72
2023-01-19T14:48:59.552Z,7.70
2023-01-19T14:51:29.015Z,7.64
2023-01-19T14:54:00.822Z,7.60
2023-01-19T14:56:30.549Z,7.59
2023-01-19T14:59:00.930Z,7.60
2023-01-19T15:01:30.056Z,7.59
2023-01-19T15:03:59.414Z,7.57
2023-01-19T15:06:28.009Z,7.51
2023-01-19T15:08:56.880Z,7.48
2023-01-19T15:11:31.230Z,7.48
2023-01-19T15:14:00.178Z,7.46
2023-01-19T15:16:30.822Z,7.43
2023-01-19T15:18:59.120Z,7.41
2023-01-19T15:21:27.495Z,7.37
2023-01-19T15:23:56.179Z,7.37
2023-01-19T15:26:26.469Z,7.37
2023-01-19T15:28:56.776Z,7.38
2023-01-19T15:31:27.576Z,7.36
2023-01-19T15:33:55.935Z,7.36
2023-01-19T15:36:26.548Z,7.34
2023-01-19T15:38:54.862Z,7.33
2023-01-19T15:41:25.005Z,7.32
2023-01-19T15:43:53.999Z,7.35
2023-01-19T15:46:23.808Z,7.37
2023-01-19T15:48:53.122Z,7.40
2023-01-19T15:51:27.087Z,7.43
2023-01-19T15:53:56.600Z,7.46
2023-01-19T15:56:32.667Z,7.47
2023-01-19T15:59:01.012Z,7.46
2023-01-19T16:01:34.767Z,7.49
2023-01-19T16:04:06.566Z,7.53
2023-01-19T16:06:35.271Z,7.60
2023-01-19T16:09:04.829Z,7.66
2023-01-19T16:11:34.903Z,7.73
2023-01-19T16:14:03.619Z,7.79
2023-01-19T16:16:32.026Z,7.84
2023-01-19T16:19:00.344Z,7.88
2023-01-19T16:21:28.695Z,7.94
2023-01-19T16:23:57.086Z,7.99
2023-01-19T16:26:30.092Z,8.06
2023-01-19T16:29:10.834Z,8.10
2023-01-19T16:31:44.180Z,8.16
2023-01-19T16:34:12.965Z,8.24
2023-01-19T16:36:42.797Z,8.33
2023-01-19T16:39:16.484Z,8.39
2023-01-19T16:41:46.271Z,8.44
2023-01-19T16:44:16.187Z,8.50
2023-01-19T16:46:47.296Z,8.55
2023-01-19T16:49:22.081Z,8.55
2023-01-19T16:51:50.292Z,8.56
2023-01-19T16:54:22.191Z,8.58
2023-01-19T16:56:51.033Z,8.60
2023-01-19T16:59:20.424Z,8.63
2023-01-19T17:01:51.366Z,8.65
2023-01-19T17:04:21.504Z,8.71
2023-01-19T17:06:50.798Z,8.76
2023-01-19T17:09:19.553Z,8.80
2023-01-19T17:11:48.467Z,8.82
2023-01-19T17:14:21.268Z,8.86
2023-01-19T17:16:49.973Z,8.88
2023-01-19T17:19:21.002Z,8.95
2023-01-19T17:21:50.568Z,9.02
2023-01-19T17:24:19.637Z,9.09
2023-01-19T17:26:49.509Z,9.14
2023-01-19T17:29:18.433Z,9.22
2023-01-19T17:31:47.645Z,9.28
2023-01-19T17:34:15.981Z,9.29
2023-01-19T17:36:44.642Z,9.34
2023-01-19T17:39:15.557Z,9.32
2023-01-19T17:41:45.476Z,9.31
2023-01-19T17:44:13.835Z,9.31
2023-01-19T17:46:42.255Z,9.30
2023-01-19T17:49:11.912Z,9.31
2023-01-19T17:51:40.233Z,9.32
2023-01-19T17:54:08.584Z,9.31
2023-01-19T17:56:39.391Z,9.32
2023-01-19T17:59:08.788Z,9.33
2023-01-19T18:01:40.700Z,9.37
2023-01-19T18:04:10.448Z,9.41
2023-01-19T18:06:40.117Z,9.45
2023-01-19T18:09:08.823Z,9.47
2023-01-19T18:11:37.274Z,9.52
2023-01-19T18:14:06.901Z,9.53
2023-01-19T18:16:35.715Z,9.55
2023-01-19T18:19:04.184Z,9.56
2023-01-19T18:21:32.408Z,9.57
2023-01-19T18:24:05.903Z,9.63
2023-01-19T18:26:35.679Z,9.66
2023-01-19T18:29:04.149Z,9.67
2023-01-19T18:31:32.693Z,9.67
2023-01-19T18:34:01.093Z,9.69
2023-01-19T18:36:29.509Z,9.70
2023-01-19T18:38:57.803Z,9.70
2023-01-19T18:41:26.140Z,9.72
2023-01-19T18:43:59.755Z,9.73
2023-01-19T18:46:28.354Z,9.71
2023-01-19T18:48:56.836Z,9.68
2023-01-19T18:51:25.169Z,9.68
2023-01-19T18:53:53.557Z,9.74
2023-01-19T18:56:21.816Z,9.78
2023-01-19T18:58:50.169Z,9.86
2023-01-19T19:01:29.204Z,9.94
2023-01-19T19:03:59.517Z,9.98
2023-01-19T19:06:28.348Z,9.97
2023-01-19T19:08:58.843Z,9.97
2023-01-19T19:11:28.774Z,9.94
2023-01-19T19:14:02.327Z,9.97
2023-01-19T19:16:35.128Z,9.98
2023-01-19T19:19:04.234Z,10.03
2023-01-19T19:21:32.609Z,10.11
2023-01-19T19:24:00.955Z,10.18
2023-01-19T19:26:29.972Z,10.25
2023-01-19T19:28:58.478Z,10.30
2023-01-19T19:31:28.371Z,10.37
2023-01-19T19:33:58.192Z,10.45
2023-01-19T19:36:28.480Z,10.52
2023-01-19T19:38:57.154Z,10.59
2023-01-19T19:41:30.439Z,10.66
2023-01-19T19:43:59.377Z,10.71
2023-01-19T19:46:28.815Z,10.73
2023-01-19T19:48:57.212Z,10.72
2023-01-19T19:51:40.990Z,10.70
2023-01-19T19:54:09.963Z,10.71
2023-01-19T19:56:38.228Z,10.77
2023-01-19T19:59:07.348Z,10.84
2023-01-19T20:01:35.926Z,10.93
2023-01-19T20:04:10.520Z,11.01
2023-01-19T20:06:42.525Z,11.02
2023-01-19T20:09:13.712Z,10.99
2023-01-19T20:11:43.172Z,10.99
2023-01-19T20:14:13.475Z,10.99
2023-01-19T20:16:41.773Z,11.05
2023-01-19T20:19:10.224Z,11.15
2023-01-19T20:21:41.478Z,11.13
2023-01-19T20:24:15.492Z,11.08
2023-01-19T20:26:51.187Z,11.11
2023-01-19T20:29:21.111Z,11.17
2023-01-19T20:31:52.992Z,11.25
2023-01-19T20:34:25.420Z,11.29
2023-01-19T20:36:54.722Z,11.34
2023-01-19T20:39:24.950Z,11.36
2023-01-19T20:41:53.484Z,11.40
2023-01-19T20:44:24.964Z,11.45
2023-01-19T20:46:55.369Z,11.53
2023-01-19T20:49:24.207Z,11.50
2023-01-19T20:51:52.867Z,11.53
2023-01-19T20:54:25.263Z,11.59
2023-01-19T20:56:53.772Z,11.59
2023-01-19T20:59:22.143Z,11.68
2023-01-19T21:01:50.882Z,11.71
2023-01-19T21:04:19.342Z,11.73
2023-01-19T21:06:47.674Z,11.79
2023-01-19T21:09:16.014Z,11.86
2023-01-19T21:11:44.360Z,11.88
2023-01-19T21:14:12.718Z,11.93
2023-01-19T21:16:43.345Z,11.94
2023-01-19T21:19:12.814Z,11.95
2023-01-19T21:21:41.184Z,12.01
2023-01-19T21:24:11.852Z,12.01
2023-01-19T21:26:40.363Z,12.09
2023-01-19T21:29:14.027Z,12.16
2023-01-19T21:31:42.911Z,12.11
2023-01-19T21:34:11.416Z,12.00
2023-01-19T21:36:39.804Z,11.92
2023-01-19T21:39:09.045Z,11.76
2023-01-19T21:41:38.906Z,11.63
2023-01-19T21:44:07.313Z,11.68
2023-01-19T21:46:36.435Z,11.83
2023-01-19T21:49:07.593Z,11.94
2023-01-19T21:51:37.942Z,12.02
2023-01-19T21:54:08.069Z,12.03
2023-01-19T21:56:38.816Z,12.00
2023-01-19T21:59:07.543Z,11.97
2023-01-19T22:01:36.422Z,12.04
2023-01-19T22:04:05.036Z,12.18
2023-01-19T22:06:33.326Z,12.29
2023-01-19T22:09:01.838Z,12.35
2023-01-19T22:11:30.995Z,12.22
2023-01-19T22:14:02.058Z,12.20
2023-01-19T22:16:31.405Z,12.40
2023-01-19T22:19:03.082Z,12.59
2023-01-19T22:21:34.132Z,12.65
2023-01-19T22:24:04.201Z,12.72
2023-01-19T22:26:34.988Z,12.89
2023-01-19T22:29:03.988Z,12.80
2023-01-19T22:31:32.467Z,12.87
2023-01-19T22:34:00.844Z,12.75
2023-01-19T22:36:32.547Z,12.82
2023-01-19T22:39:09.705Z,12.65
2023-01-19T22:41:43.374Z,12.49
2023-01-19T22:44:17.653Z,12.59
2023-01-19T22:46:46.293Z,12.58
2023-01-19T22:49:17.149Z,12.67
2023-01-19T22:51:46.276Z,12.52
2023-01-19T22:54:14.575Z,12.30
2023-01-19T22:56:43.776Z,12.30
2023-01-19T22:59:12.037Z,12.30
2023-01-19T23:01:44.776Z,12.30
2023-01-19T23:04:17.029Z,12.24
2023-01-19T23:06:50.197Z,12.08
2023-01-19T23:09:18.842Z,11.98
2023-01-19T23:11:52.173Z,12.00
2023-01-19T23:14:22.909Z,12.00
2023-01-19T23:16:51.239Z,12.03
2023-01-19T23:19:20.306Z,12.01
2023-01-19T23:21:52.856Z,11.94
2023-01-19T23:24:21.274Z,11.89
2023-01-19T23:26:51.493Z,11.83
2023-01-19T23:29:20.573Z,11.77
2023-01-19T23:31:50.443Z,11.70
2023-01-19T23:34:18.800Z,11.66
2023-01-19T23:36:47.229Z,11.64
2023-01-19T23:39:21.691Z,11.61
2023-01-19T23:41:50.757Z,11.57
2023-01-19T23:44:19.450Z,11.51
2023-01-19T23:46:48.011Z,11.47
2023-01-19T23:49:16.388Z,11.43
2023-01-19T23:51:44.697Z,11.37
2023-01-19T23:54:13.161Z,11.31
2023-01-19T23:56:43.371Z,11.29
2023-01-19T23:59:14.207Z,11.22
